sensor_id;sensor_type;location;lat;lon;timestamp;temperature;humidity
2062;DHT22;11070;51.336;12.340;2024-03-23T00:55:35;10.60;99.90
2062;DHT22;11070;51.336;12.340;2024-03-23T00:58:00;10.70;99.90
2062;DHT22;11070;51.336;12.340;2024-03-23T01:00:26;10.70;99.90
2062;DHT22;11070;51.336;12.340;2024-03-23T01:02:52;10.70;99.90
2062;DHT22;11070;51.336;12.340;2024-03-23T01:05:17;10.70;99.90
2062;DHT22;11070;51.336;12.340;2024-03-23T01:07:43;10.70;99.90
2062;DHT22;11070;51.336;12.340;2024-03-23T01:10:09;10.60;99.90
2062;DHT22;11070;51.336;12.340;2024-03-23T01:12:35;10.50;99.90
2062;DHT22;11070;51.336;12.340;2024-03-23T01:15:00;10.40;99.90
2062;DHT22;11070;51.336;12.340;2024-03-23T01:17:26;10.40;99.90
2062;DHT22;11070;51.336;12.340;2024-03-23T01:19:51;10.40;99.90
2062;DHT22;11070;51.336;12.340;2024-03-23T01:22:18;10.30;99.90
2062;DHT22;11070;51.336;12.340;2024-03-23T01:24:43;10.40;99.90
2062;DHT22;11070;51.336;12.340;2024-03-23T01:27:10;10.30;99.90
2062;DHT22;11070;51.336;12.340;2024-03-23T01:29:35;10.20;99.90
2062;DHT22;11070;51.336;12.340;2024-03-23T01:32:01;10.10;99.90
2062;DHT22;11070;51.336;12.340;2024-03-23T01:34:26;10.00;99.90
2062;DHT22;11070;51.336;12.340;2024-03-23T01:36:53;10.00;99.90
2062;DHT22;11070;51.336;12.340;2024-03-23T01:39:19;9.90;99.90
2062;DHT22;11070;51.336;12.340;2024-03-23T01:41:44;9.80;99.90
2062;DHT22;11070;51.336;12.340;2024-03-23T01:44:10;9.80;99.90
2062;DHT22;11070;51.336;12.340;2024-03-23T01:46:40;9.70;99.90
2062;DHT22;11070;51.336;12.340;2024-03-23T01:49:07;9.70;99.90
2062;DHT22;11070;51.336;12.340;2024-03-23T01:51:33;9.70;99.90
2062;DHT22;11070;51.336;12.340;2024-03-23T01:54:00;9.70;99.90
2062;DHT22;11070;51.336;12.340;2024-03-23T01:56:32;9.70;99.90
2062;DHT22;11070;51.336;12.340;2024-03-23T01:58:59;9.70;99.90
2062;DHT22;11070;51.336;12.340;2024-03-23T02:01:24;9.70;99.90
2062;DHT22;11070;51.336;12.340;2024-03-23T02:03:50;9.70;99.90
2062;DHT22;11070;51.336;12.340;2024-03-23T02:06:16;9.60;99.90
2062;DHT22;11070;51.336;12.340;2024-03-23T02:08:41;9.60;99.90
2062;DHT22;11070;51.336;12.340;2024-03-23T02:11:07;9.60;99.90
2062;DHT22;11070;51.336;12.340;2024-03-23T02:13:33;9.50;99.90
2062;DHT22;11070;51.336;12.340;2024-03-23T02:15:59;9.50;99.90
2062;DHT22;11070;51.336;12.340;2024-03-23T02:18:24;9.40;99.90
2062;DHT22;11070;51.336;12.340;2024-03-23T02:20:50;9.40;99.90
2062;DHT22;11070;51.336;12.340;2024-03-23T02:23:16;9.40;99.90
2062;DHT22;11070;51.336;12.340;2024-03-23T02:25:43;9.40;99.90
2062;DHT22;11070;51.336;12.340;2024-03-23T02:28:09;9.40;99.90
2062;DHT22;11070;51.336;12.340;2024-03-23T02:30:35;9.40;99.90
2062;DHT22;11070;51.336;12.340;2024-03-23T02:33:01;9.30;99.90
2062;DHT22;11070;51.336;12.340;2024-03-23T02:35:26;9.30;99.90
2062;DHT22;11070;51.336;12.340;2024-03-23T02:37:52;9.30;99.90
2062;DHT22;11070;51.336;12.340;2024-03-23T02:40:19;9.30;99.90
2062;DHT22;11070;51.336;12.340;2024-03-23T02:42:45;9.30;99.90
2062;DHT22;11070;51.336;12.340;2024-03-23T02:45:11;9.40;99.90
2062;DHT22;11070;51.336;12.340;2024-03-23T02:47:37;9.30;99.90
2062;DHT22;11070;51.336;12.340;2024-03-23T02:50:03;9.30;99.90
2062;DHT22;11070;51.336;12.340;2024-03-23T02:52:32;9.30;99.90
2062;DHT22;11070;51.336;12.340;2024-03-23T02:54:58;9.30;99.90
2062;DHT22;11070;51.336;12.340;2024-03-23T02:57:24;9.30;99.90
2062;DHT22;11070;51.336;12.340;2024-03-23T02:59:50;9.30;99.90
2062;DHT22;11070;51.336;12.340;2024-03-23T03:02:16;9.30;99.90
2062;DHT22;11070;51.336;12.340;2024-03-23T03:04:41;9.30;99.90
2062;DHT22;11070;51.336;12.340;2024-03-23T03:07:07;9.30;99.90
2062;DHT22;11070;51.336;12.340;2024-03-23T03:09:36;9.30;99.90
2062;DHT22;11070;51.336;12.340;2024-03-23T03:12:05;9.30;99.90
2062;DHT22;11070;51.336;12.340;2024-03-23T03:14:30;9.40;99.90
2062;DHT22;11070;51.336;12.340;2024-03-23T03:16:56;9.40;99.90
2062;DHT22;11070;51.336;12.340;2024-03-23T03:19:22;9.40;99.90
2062;DHT22;11070;51.336;12.340;2024-03-23T03:21:47;9.40;99.90
2062;DHT22;11070;51.336;12.340;2024-03-23T03:24:13;9.30;99.90
2062;DHT22;11070;51.336;12.340;2024-03-23T03:26:39;9.40;99.90
2062;DHT22;11070;51.336;12.340;2024-03-23T03:29:05;9.40;99.90
2062;DHT22;11070;51.336;12.340;2024-03-23T03:31:31;9.40;99.90
2062;DHT22;11070;51.336;12.340;2024-03-23T03:33:56;9.40;99.90
2062;DHT22;11070;51.336;12.340;2024-03-23T03:36:22;9.40;99.90
2062;DHT22;11070;51.336;12.340;2024-03-23T03:38:48;9.40;99.90
2062;DHT22;11070;51.336;12.340;2024-03-23T03:41:13;9.40;99.90
2062;DHT22;11070;51.336;12.340;2024-03-23T03:43:39;9.30;99.90
2062;DHT22;11070;51.336;12.340;2024-03-23T03:46:05;9.30;99.90
2062;DHT22;11070;51.336;12.340;2024-03-23T03:48:33;9.30;99.90
2062;DHT22;11070;51.336;12.340;2024-03-23T03:50:59;9.30;99.90
2062;DHT22;11070;51.336;12.340;2024-03-23T03:53:24;9.30;99.90
2062;DHT22;11070;51.336;12.340;2024-03-23T03:55:50;9.30;99.90
2062;DHT22;11070;51.336;12.340;2024-03-23T03:58:16;9.30;99.90
2062;DHT22;11070;51.336;12.340;2024-03-23T04:00:41;9.30;99.90
2062;DHT22;11070;51.336;12.340;2024-03-23T04:03:07;9.30;99.90
2062;DHT22;11070;51.336;12.340;2024-03-23T04:05:33;9.20;99.90
2062;DHT22;11070;51.336;12.340;2024-03-23T04:07:58;9.20;99.90
2062;DHT22;11070;51.336;12.340;2024-03-23T04:10:24;9.30;99.90
2062;DHT22;11070;51.336;12.340;2024-03-23T04:12:50;9.30;99.90
2062;DHT22;11070;51.336;12.340;2024-03-23T04:15:16;9.30;99.90
2062;DHT22;11070;51.336;12.340;2024-03-23T04:17:42;9.20;99.90
2062;DHT22;11070;51.336;12.340;2024-03-23T04:20:09;9.20;99.90
2062;DHT22;11070;51.336;12.340;2024-03-23T04:22:40;9.10;99.90
2062;DHT22;11070;51.336;12.340;2024-03-23T04:25:06;9.10;99.90
2062;DHT22;11070;51.336;12.340;2024-03-23T04:27:39;9.20;99.90
2062;DHT22;11070;51.336;12.340;2024-03-23T04:30:06;9.20;99.90
2062;DHT22;11070;51.336;12.340;2024-03-23T04:32:37;9.20;99.90
2062;DHT22;11070;51.336;12.340;2024-03-23T04:35:03;9.20;99.90
2062;DHT22;11070;51.336;12.340;2024-03-23T04:37:35;9.10;99.90
2062;DHT22;11070;51.336;12.340;2024-03-23T04:40:01;9.10;99.90
2062;DHT22;11070;51.336;12.340;2024-03-23T04:42:28;9.10;99.90
2062;DHT22;11070;51.336;12.340;2024-03-23T04:44:54;9.10;99.90
2062;DHT22;11070;51.336;12.340;2024-03-23T04:47:20;9.10;99.90
2062;DHT22;11070;51.336;12.340;2024-03-23T04:49:46;9.10;99.90
2062;DHT22;11070;51.336;12.340;2024-03-23T04:52:12;9.10;99.90
2062;DHT22;11070;51.336;12.340;2024-03-23T04:54:37;9.00;99.90
2062;DHT22;11070;51.336;12.340;2024-03-23T04:57:05;9.00;99.90
2062;DHT22;11070;51.336;12.340;2024-03-23T04:59:31;9.00;99.90
2062;DHT22;11070;51.336;12.340;2024-03-23T05:01:57;9.10;99.90
2062;DHT22;11070;51.336;12.340;2024-03-23T05:04:23;9.10;99.90
2062;DHT22;11070;51.336;12.340;2024-03-23T05:06:48;9.10;99.90
2062;DHT22;11070;51.336;12.340;2024-03-23T05:09:14;9.10;99.90
2062;DHT22;11070;51.336;12.340;2024-03-23T05:11:40;9.10;99.90
2062;DHT22;11070;51.336;12.340;2024-03-23T05:14:07;9.10;99.90
2062;DHT22;11070;51.336;12.340;2024-03-23T05:16:33;9.10;99.90
2062;DHT22;11070;51.336;12.340;2024-03-23T05:18:59;9.10;99.90
2062;DHT22;11070;51.336;12.340;2024-03-23T05:21:24;9.10;99.90
2062;DHT22;11070;51.336;12.340;2024-03-23T05:23:50;9.10;99.90
2062;DHT22;11070;51.336;12.340;2024-03-23T05:26:17;9.10;99.90
2062;DHT22;11070;51.336;12.340;2024-03-23T05:28:42;9.00;99.90
2062;DHT22;11070;51.336;12.340;2024-03-23T05:31:09;9.00;99.90
2062;DHT22;11070;51.336;12.340;2024-03-23T05:33:36;9.00;99.90
2062;DHT22;11070;51.336;12.340;2024-03-23T05:36:03;9.00;99.90
2062;DHT22;11070;51.336;12.340;2024-03-23T05:38:29;9.00;99.90
2062;DHT22;11070;51.336;12.340;2024-03-23T05:40:59;9.00;99.90
2062;DHT22;11070;51.336;12.340;2024-03-23T05:43:26;9.10;99.90
2062;DHT22;11070;51.336;12.340;2024-03-23T05:45:59;9.20;99.90
2062;DHT22;11070;51.336;12.340;2024-03-23T05:48:27;9.20;99.90
2062;DHT22;11070;51.336;12.340;2024-03-23T05:50:53;9.20;99.90
2062;DHT22;11070;51.336;12.340;2024-03-23T05:53:20;9.20;99.90
2062;DHT22;11070;51.336;12.340;2024-03-23T05:55:46;9.20;99.90
2062;DHT22;11070;51.336;12.340;2024-03-23T05:58:14;9.20;99.90
2062;DHT22;11070;51.336;12.340;2024-03-23T06:00:40;9.20;99.90
2062;DHT22;11070;51.336;12.340;2024-03-23T06:03:06;9.10;99.90
2062;DHT22;11070;51.336;12.340;2024-03-23T06:05:32;9.00;99.90
2062;DHT22;11070;51.336;12.340;2024-03-23T06:07:57;9.00;99.90
2062;DHT22;11070;51.336;12.340;2024-03-23T06:10:23;9.10;99.90
2062;DHT22;11070;51.336;12.340;2024-03-23T06:12:48;9.10;99.90
2062;DHT22;11070;51.336;12.340;2024-03-23T06:15:17;9.10;99.90
2062;DHT22;11070;51.336;12.340;2024-03-23T06:17:43;9.20;99.90
2062;DHT22;11070;51.336;12.340;2024-03-23T06:20:09;9.10;99.90
2062;DHT22;11070;51.336;12.340;2024-03-23T06:22:36;9.10;99.90
2062;DHT22;11070;51.336;12.340;2024-03-23T06:25:01;9.10;99.90
2062;DHT22;11070;51.336;12.340;2024-03-23T06:27:28;9.10;99.90
2062;DHT22;11070;51.336;12.340;2024-03-23T06:29:53;9.10;99.90
2062;DHT22;11070;51.336;12.340;2024-03-23T06:32:20;9.20;99.90
2062;DHT22;11070;51.336;12.340;2024-03-23T06:34:45;9.10;99.90
2062;DHT22;11070;51.336;12.340;2024-03-23T06:37:11;9.10;99.90
2062;DHT22;11070;51.336;12.340;2024-03-23T06:39:37;9.00;99.90
2062;DHT22;11070;51.336;12.340;2024-03-23T06:42:03;9.00;99.90
2062;DHT22;11070;51.336;12.340;2024-03-23T06:44:30;8.90;99.90
2062;DHT22;11070;51.336;12.340;2024-03-23T06:46:57;8.90;99.90
2062;DHT22;11070;51.336;12.340;2024-03-23T06:49:23;8.80;99.90
2062;DHT22;11070;51.336;12.340;2024-03-23T06:51:50;8.80;99.90
2062;DHT22;11070;51.336;12.340;2024-03-23T06:54:19;8.70;99.90
2062;DHT22;11070;51.336;12.340;2024-03-23T06:56:45;8.70;99.90
2062;DHT22;11070;51.336;12.340;2024-03-23T06:59:11;8.70;99.90
2062;DHT22;11070;51.336;12.340;2024-03-23T07:01:36;8.70;99.90
2062;DHT22;11070;51.336;12.340;2024-03-23T07:04:02;8.70;99.90
2062;DHT22;11070;51.336;12.340;2024-03-23T07:06:32;8.70;99.90
2062;DHT22;11070;51.336;12.340;2024-03-23T07:08:58;8.80;99.90
2062;DHT22;11070;51.336;12.340;2024-03-23T07:11:24;8.80;99.90
2062;DHT22;11070;51.336;12.340;2024-03-23T07:13:52;8.80;99.90
2062;DHT22;11070;51.336;12.340;2024-03-23T07:16:20;8.80;99.90
2062;DHT22;11070;51.336;12.340;2024-03-23T07:18:45;8.70;99.90
2062;DHT22;11070;51.336;12.340;2024-03-23T07:21:11;8.70;99.90
2062;DHT22;11070;51.336;12.340;2024-03-23T07:23:37;8.70;99.90
2062;DHT22;11070;51.336;12.340;2024-03-23T07:26:04;8.70;99.90
2062;DHT22;11070;51.336;12.340;2024-03-23T07:28:31;8.60;99.90
2062;DHT22;11070;51.336;12.340;2024-03-23T07:31:08;8.50;99.90
2062;DHT22;11070;51.336;12.340;2024-03-23T07:33:37;8.50;99.90
2062;DHT22;11070;51.336;12.340;2024-03-23T07:36:03;8.50;99.90
2062;DHT22;11070;51.336;12.340;2024-03-23T07:38:29;8.30;99.90
2062;DHT22;11070;51.336;12.340;2024-03-23T07:41:20;8.30;99.90
2062;DHT22;11070;51.336;12.340;2024-03-23T07:43:47;8.20;99.90
2062;DHT22;11070;51.336;12.340;2024-03-23T07:46:15;7.90;99.90
2062;DHT22;11070;51.336;12.340;2024-03-23T07:48:41;7.50;99.90
2062;DHT22;11070;51.336;12.340;2024-03-23T07:51:18;7.40;99.90
2062;DHT22;11070;51.336;12.340;2024-03-23T07:53:45;7.30;99.90
2062;DHT22;11070;51.336;12.340;2024-03-23T07:56:14;7.00;99.90
2062;DHT22;11070;51.336;12.340;2024-03-23T07:58:41;6.80;99.90
2062;DHT22;11070;51.336;12.340;2024-03-23T08:01:09;6.60;99.90
2062;DHT22;11070;51.336;12.340;2024-03-23T08:03:39;6.50;99.90
2062;DHT22;11070;51.336;12.340;2024-03-23T08:06:08;6.40;99.90
2062;DHT22;11070;51.336;12.340;2024-03-23T08:08:34;6.30;99.90
2062;DHT22;11070;51.336;12.340;2024-03-23T08:11:00;6.20;99.90
2062;DHT22;11070;51.336;12.340;2024-03-23T08:13:26;6.00;99.90
2062;DHT22;11070;51.336;12.340;2024-03-23T08:15:55;5.90;99.90
2062;DHT22;11070;51.336;12.340;2024-03-23T08:18:21;5.80;99.90
2062;DHT22;11070;51.336;12.340;2024-03-23T08:21:04;5.70;99.90
2062;DHT22;11070;51.336;12.340;2024-03-23T08:23:34;5.70;99.90
2062;DHT22;11070;51.336;12.340;2024-03-23T08:26:03;5.60;99.90
2062;DHT22;11070;51.336;12.340;2024-03-23T08:28:29;5.60;99.90
2062;DHT22;11070;51.336;12.340;2024-03-23T08:30:55;5.50;99.90
2062;DHT22;11070;51.336;12.340;2024-03-23T08:33:22;5.40;99.90
2062;DHT22;11070;51.336;12.340;2024-03-23T08:35:57;5.50;99.90
2062;DHT22;11070;51.336;12.340;2024-03-23T08:38:24;5.50;99.90
2062;DHT22;11070;51.336;12.340;2024-03-23T08:41:06;5.40;99.90
2062;DHT22;11070;51.336;12.340;2024-03-23T08:43:37;5.40;99.90
2062;DHT22;11070;51.336;12.340;2024-03-23T08:46:04;5.40;99.90
2062;DHT22;11070;51.336;12.340;2024-03-23T08:48:30;5.30;99.90
2062;DHT22;11070;51.336;12.340;2024-03-23T08:53:29;5.30;99.90
2062;DHT22;11070;51.336;12.340;2024-03-23T08:55:56;5.30;99.90
2062;DHT22;11070;51.336;12.340;2024-03-23T08:58:24;5.30;99.90
2062;DHT22;11070;51.336;12.340;2024-03-23T09:00:51;5.30;99.90
2062;DHT22;11070;51.336;12.340;2024-03-23T09:03:17;5.40;99.90
2062;DHT22;11070;51.336;12.340;2024-03-23T09:05:43;5.50;99.90
2062;DHT22;11070;51.336;12.340;2024-03-23T09:08:08;5.60;99.90
2062;DHT22;11070;51.336;12.340;2024-03-23T09:10:39;5.70;99.90
2062;DHT22;11070;51.336;12.340;2024-03-23T09:13:05;5.70;99.90
2062;DHT22;11070;51.336;12.340;2024-03-23T09:15:32;5.70;99.90
2062;DHT22;11070;51.336;12.340;2024-03-23T09:17:59;5.90;99.90
2062;DHT22;11070;51.336;12.340;2024-03-23T09:20:25;5.90;99.90
2062;DHT22;11070;51.336;12.340;2024-03-23T09:22:51;5.80;99.90
2062;DHT22;11070;51.336;12.340;2024-03-23T09:25:16;5.90;99.90
2062;DHT22;11070;51.336;12.340;2024-03-23T09:27:42;6.00;99.90
2062;DHT22;11070;51.336;12.340;2024-03-23T09:30:08;6.20;99.90
2062;DHT22;11070;51.336;12.340;2024-03-23T09:32:35;6.40;99.90
2062;DHT22;11070;51.336;12.340;2024-03-23T09:35:01;6.70;99.90
2062;DHT22;11070;51.336;12.340;2024-03-23T09:37:27;6.70;99.90
2062;DHT22;11070;51.336;12.340;2024-03-23T09:39:52;6.60;99.90
2062;DHT22;11070;51.336;12.340;2024-03-23T09:42:18;6.80;99.90
2062;DHT22;11070;51.336;12.340;2024-03-23T09:44:44;6.60;99.90
2062;DHT22;11070;51.336;12.340;2024-03-23T09:47:10;6.40;99.90
2062;DHT22;11070;51.336;12.340;2024-03-23T09:49:35;6.10;99.90
2062;DHT22;11070;51.336;12.340;2024-03-23T09:52:02;6.10;99.90
2062;DHT22;11070;51.336;12.340;2024-03-23T09:54:28;6.00;99.90
2062;DHT22;11070;51.336;12.340;2024-03-23T09:56:58;5.90;99.90
2062;DHT22;11070;51.336;12.340;2024-03-23T09:59:24;5.90;99.90
2062;DHT22;11070;51.336;12.340;2024-03-23T10:01:53;5.90;99.90
2062;DHT22;11070;51.336;12.340;2024-03-23T10:04:41;5.90;99.90
2062;DHT22;11070;51.336;12.340;2024-03-23T10:07:19;5.80;99.90
2062;DHT22;11070;51.336;12.340;2024-03-23T10:09:50;5.80;99.90
2062;DHT22;11070;51.336;12.340;2024-03-23T10:12:18;5.70;99.90
2062;DHT22;11070;51.336;12.340;2024-03-23T10:14:44;5.70;99.90
2062;DHT22;11070;51.336;12.340;2024-03-23T10:17:20;5.60;99.90
2062;DHT22;11070;51.336;12.340;2024-03-23T10:19:49;5.60;99.90
2062;DHT22;11070;51.336;12.340;2024-03-23T10:22:23;5.60;99.90
2062;DHT22;11070;51.336;12.340;2024-03-23T10:24:50;5.50;99.90
2062;DHT22;11070;51.336;12.340;2024-03-23T10:27:16;5.50;99.90
2062;DHT22;11070;51.336;12.340;2024-03-23T10:29:46;5.40;99.90
2062;DHT22;11070;51.336;12.340;2024-03-23T10:32:13;5.30;99.90
2062;DHT22;11070;51.336;12.340;2024-03-23T10:34:40;5.20;99.90
2062;DHT22;11070;51.336;12.340;2024-03-23T10:37:06;5.20;99.90
2062;DHT22;11070;51.336;12.340;2024-03-23T10:39:37;4.90;99.90
2062;DHT22;11070;51.336;12.340;2024-03-23T10:42:07;4.80;99.90
2062;DHT22;11070;51.336;12.340;2024-03-23T10:44:33;4.80;99.90
2062;DHT22;11070;51.336;12.340;2024-03-23T10:47:03;4.90;99.90
2062;DHT22;11070;51.336;12.340;2024-03-23T10:49:33;4.80;99.90
2062;DHT22;11070;51.336;12.340;2024-03-23T10:52:11;4.80;99.90
2062;DHT22;11070;51.336;12.340;2024-03-23T10:54:37;4.80;99.90
2062;DHT22;11070;51.336;12.340;2024-03-23T10:57:14;4.70;99.90
2062;DHT22;11070;51.336;12.340;2024-03-23T10:59:44;4.80;99.90
2062;DHT22;11070;51.336;12.340;2024-03-23T11:02:21;5.00;99.90
2062;DHT22;11070;51.336;12.340;2024-03-23T11:04:47;5.20;99.90
2062;DHT22;11070;51.336;12.340;2024-03-23T11:07:31;5.40;99.90
2062;DHT22;11070;51.336;12.340;2024-03-23T11:09:58;5.60;99.90
2062;DHT22;11070;51.336;12.340;2024-03-23T11:14:53;5.80;99.90
2062;DHT22;11070;51.336;12.340;2024-03-23T11:17:20;5.90;99.90
2062;DHT22;11070;51.336;12.340;2024-03-23T11:20:00;5.90;99.90
2062;DHT22;11070;51.336;12.340;2024-03-23T11:25:25;5.70;99.90
2062;DHT22;11070;51.336;12.340;2024-03-23T11:27:53;6.00;99.90
2062;DHT22;11070;51.336;12.340;2024-03-23T11:30:20;6.10;99.90
2062;DHT22;11070;51.336;12.340;2024-03-23T11:32:51;6.20;99.90
2062;DHT22;11070;51.336;12.340;2024-03-23T11:35:32;6.30;99.90
2062;DHT22;11070;51.336;12.340;2024-03-23T11:38:16;6.40;99.90
2062;DHT22;11070;51.336;12.340;2024-03-23T11:40:47;6.60;99.90
2062;DHT22;11070;51.336;12.340;2024-03-23T11:43:18;6.80;99.90
2062;DHT22;11070;51.336;12.340;2024-03-23T11:45:49;7.20;99.90
2062;DHT22;11070;51.336;12.340;2024-03-23T11:48:20;8.10;99.90
2062;DHT22;11070;51.336;12.340;2024-03-23T11:50:48;9.40;99.90
2062;DHT22;11070;51.336;12.340;2024-03-23T11:53:19;10.70;99.90
2062;DHT22;11070;51.336;12.340;2024-03-23T11:55:52;11.90;99.90
2062;DHT22;11070;51.336;12.340;2024-03-23T11:58:19;12.90;99.90
2062;DHT22;11070;51.336;12.340;2024-03-23T12:00:58;13.80;97.50
2062;DHT22;11070;51.336;12.340;2024-03-23T12:03:24;13.50;92.60
2062;DHT22;11070;51.336;12.340;2024-03-23T12:08:25;14.00;91.70
2062;DHT22;11070;51.336;12.340;2024-03-23T12:13:30;14.20;88.40
2062;DHT22;11070;51.336;12.340;2024-03-23T12:18:34;14.50;87.40
2062;DHT22;11070;51.336;12.340;2024-03-23T12:21:00;14.90;80.10
2062;DHT22;11070;51.336;12.340;2024-03-23T12:23:25;15.40;76.00
2062;DHT22;11070;51.336;12.340;2024-03-23T12:25:51;16.00;75.00
2062;DHT22;11070;51.336;12.340;2024-03-23T12:28:17;15.40;68.20
2062;DHT22;11070;51.336;12.340;2024-03-23T12:30:42;14.50;73.10
2062;DHT22;11070;51.336;12.340;2024-03-23T12:33:08;14.40;74.10
2062;DHT22;11070;51.336;12.340;2024-03-23T12:35:34;13.60;73.40
2062;DHT22;11070;51.336;12.340;2024-03-23T12:38:00;13.30;79.40
2062;DHT22;11070;51.336;12.340;2024-03-23T12:40:26;12.90;81.70
2062;DHT22;11070;51.336;12.340;2024-03-23T12:42:53;12.80;86.40
2062;DHT22;11070;51.336;12.340;2024-03-23T12:45:19;12.90;84.00
2062;DHT22;11070;51.336;12.340;2024-03-23T12:47:44;13.10;90.50
2062;DHT22;11070;51.336;12.340;2024-03-23T12:50:10;13.80;82.90
2062;DHT22;11070;51.336;12.340;2024-03-23T12:52:37;13.70;79.80
2062;DHT22;11070;51.336;12.340;2024-03-23T12:55:03;14.30;78.80
2062;DHT22;11070;51.336;12.340;2024-03-23T12:57:31;14.10;75.00
2062;DHT22;11070;51.336;12.340;2024-03-23T12:59:57;14.20;76.90
2062;DHT22;11070;51.336;12.340;2024-03-23T13:02:23;14.20;76.90
2062;DHT22;11070;51.336;12.340;2024-03-23T13:04:52;13.70;75.70
2062;DHT22;11070;51.336;12.340;2024-03-23T13:07:19;13.40;77.20
2062;DHT22;11070;51.336;12.340;2024-03-23T13:09:45;12.80;80.40
2062;DHT22;11070;51.336;12.340;2024-03-23T13:12:11;13.00;81.00
2062;DHT22;11070;51.336;12.340;2024-03-23T13:14:38;13.60;77.80
2062;DHT22;11070;51.336;12.340;2024-03-23T13:17:04;14.20;73.80
2062;DHT22;11070;51.336;12.340;2024-03-23T13:19:30;14.00;73.00
2062;DHT22;11070;51.336;12.340;2024-03-23T13:22:00;13.20;75.90
2062;DHT22;11070;51.336;12.340;2024-03-23T13:24:27;12.50;76.50
2062;DHT22;11070;51.336;12.340;2024-03-23T13:26:54;12.40;79.10
2062;DHT22;11070;51.336;12.340;2024-03-23T13:29:21;13.30;77.60
2062;DHT22;11070;51.336;12.340;2024-03-23T13:31:47;14.70;73.40
2062;DHT22;11070;51.336;12.340;2024-03-23T13:34:14;14.90;66.00
2062;DHT22;11070;51.336;12.340;2024-03-23T13:36:44;14.80;62.60
2062;DHT22;11070;51.336;12.340;2024-03-23T13:39:10;14.50;61.30
2062;DHT22;11070;51.336;12.340;2024-03-23T13:41:44;13.00;64.40
2062;DHT22;11070;51.336;12.340;2024-03-23T13:44:13;12.20;69.90
2062;DHT22;11070;51.336;12.340;2024-03-23T13:46:41;11.60;73.60
2062;DHT22;11070;51.336;12.340;2024-03-23T13:49:32;11.00;75.90
2062;DHT22;11070;51.336;12.340;2024-03-23T13:51:58;10.60;77.50
2062;DHT22;11070;51.336;12.340;2024-03-23T13:54:27;10.20;77.70
2062;DHT22;11070;51.336;12.340;2024-03-23T13:56:55;9.70;86.40
2062;DHT22;11070;51.336;12.340;2024-03-23T13:59:21;9.30;99.90
2062;DHT22;11070;51.336;12.340;2024-03-23T14:01:48;8.80;99.90
2062;DHT22;11070;51.336;12.340;2024-03-23T14:04:14;8.40;99.90
2062;DHT22;11070;51.336;12.340;2024-03-23T14:06:42;7.80;99.90
2062;DHT22;11070;51.336;12.340;2024-03-23T14:09:10;7.50;99.90
2062;DHT22;11070;51.336;12.340;2024-03-23T14:11:36;7.80;99.90
2062;DHT22;11070;51.336;12.340;2024-03-23T14:14:03;8.50;99.90
2062;DHT22;11070;51.336;12.340;2024-03-23T14:16:32;8.70;99.90
2062;DHT22;11070;51.336;12.340;2024-03-23T14:18:59;8.80;99.90
2062;DHT22;11070;51.336;12.340;2024-03-23T14:21:25;9.10;99.90
2062;DHT22;11070;51.336;12.340;2024-03-23T14:23:56;9.90;99.90
2062;DHT22;11070;51.336;12.340;2024-03-23T14:26:22;10.70;99.90
2062;DHT22;11070;51.336;12.340;2024-03-23T14:28:49;11.10;99.90
2062;DHT22;11070;51.336;12.340;2024-03-23T14:31:16;10.90;99.90
2062;DHT22;11070;51.336;12.340;2024-03-23T14:33:47;10.30;99.90
2062;DHT22;11070;51.336;12.340;2024-03-23T14:36:47;9.40;99.90
2062;DHT22;11070;51.336;12.340;2024-03-23T14:39:06;8.80;99.90
2062;DHT22;11070;51.336;12.340;2024-03-23T14:41:32;8.40;99.90
2062;DHT22;11070;51.336;12.340;2024-03-23T14:43:58;8.20;99.90
2062;DHT22;11070;51.336;12.340;2024-03-23T14:46:23;8.00;99.90
2062;DHT22;11070;51.336;12.340;2024-03-23T14:48:49;7.80;99.90
2062;DHT22;11070;51.336;12.340;2024-03-23T14:51:15;7.70;99.90
2062;DHT22;11070;51.336;12.340;2024-03-23T14:53:44;7.40;99.90
2062;DHT22;11070;51.336;12.340;2024-03-23T14:56:10;7.20;99.90
2062;DHT22;11070;51.336;12.340;2024-03-23T14:58:38;7.10;99.90
2062;DHT22;11070;51.336;12.340;2024-03-23T15:01:05;7.00;99.90
2062;DHT22;11070;51.336;12.340;2024-03-23T15:03:35;6.80;99.90
2062;DHT22;11070;51.336;12.340;2024-03-23T15:06:01;6.50;99.90
2062;DHT22;11070;51.336;12.340;2024-03-23T15:08:27;6.40;99.90
2062;DHT22;11070;51.336;12.340;2024-03-23T15:10:53;6.20;99.90
2062;DHT22;11070;51.336;12.340;2024-03-23T15:13:19;6.10;99.90
2062;DHT22;11070;51.336;12.340;2024-03-23T15:15:49;6.20;99.90
2062;DHT22;11070;51.336;12.340;2024-03-23T15:18:15;6.70;99.90
2062;DHT22;11070;51.336;12.340;2024-03-23T15:20:58;7.60;99.90
2062;DHT22;11070;51.336;12.340;2024-03-23T15:23:27;8.60;99.90
2062;DHT22;11070;51.336;12.340;2024-03-23T15:25:59;9.00;99.90
2062;DHT22;11070;51.336;12.340;2024-03-23T15:28:26;9.00;99.90
2062;DHT22;11070;51.336;12.340;2024-03-23T15:31:05;8.80;99.90
2062;DHT22;11070;51.336;12.340;2024-03-23T15:33:31;8.60;99.90
2062;DHT22;11070;51.336;12.340;2024-03-23T15:36:03;8.40;99.90
2062;DHT22;11070;51.336;12.340;2024-03-23T15:38:30;8.30;99.90
2062;DHT22;11070;51.336;12.340;2024-03-23T15:40:56;8.60;99.90
2062;DHT22;11070;51.336;12.340;2024-03-23T15:43:22;8.50;99.90
2062;DHT22;11070;51.336;12.340;2024-03-23T15:45:58;8.50;99.90
2062;DHT22;11070;51.336;12.340;2024-03-23T15:48:27;8.60;99.90
2062;DHT22;11070;51.336;12.340;2024-03-23T15:50:54;8.80;99.90
2062;DHT22;11070;51.336;12.340;2024-03-23T15:53:21;8.80;99.90
2062;DHT22;11070;51.336;12.340;2024-03-23T15:56:00;9.20;99.90
2062;DHT22;11070;51.336;12.340;2024-03-23T15:58:27;9.50;99.90
2062;DHT22;11070;51.336;12.340;2024-03-23T16:01:00;9.40;99.90
2062;DHT22;11070;51.336;12.340;2024-03-23T16:03:26;9.70;99.90
2062;DHT22;11070;51.336;12.340;2024-03-23T16:06:04;9.40;99.90
2062;DHT22;11070;51.336;12.340;2024-03-23T16:08:30;9.20;99.90
2062;DHT22;11070;51.336;12.340;2024-03-23T16:11:04;9.10;99.90
2062;DHT22;11070;51.336;12.340;2024-03-23T16:13:33;9.20;99.90
2062;DHT22;11070;51.336;12.340;2024-03-23T16:16:03;9.20;99.90
2062;DHT22;11070;51.336;12.340;2024-03-23T16:18:32;9.40;99.90
2062;DHT22;11070;51.336;12.340;2024-03-23T16:21:00;9.40;99.90
2062;DHT22;11070;51.336;12.340;2024-03-23T16:23:27;9.50;99.90
2062;DHT22;11070;51.336;12.340;2024-03-23T16:25:54;9.40;99.90
2062;DHT22;11070;51.336;12.340;2024-03-23T16:28:32;9.00;99.90
2062;DHT22;11070;51.336;12.340;2024-03-23T16:31:08;8.50;99.90
2062;DHT22;11070;51.336;12.340;2024-03-23T16:33:38;8.20;99.90
2062;DHT22;11070;51.336;12.340;2024-03-23T16:36:05;7.90;99.90
2062;DHT22;11070;51.336;12.340;2024-03-23T16:38:33;7.70;99.90
2062;DHT22;11070;51.336;12.340;2024-03-23T16:41:04;7.50;99.90
2062;DHT22;11070;51.336;12.340;2024-03-23T16:43:31;7.50;99.90
2062;DHT22;11070;51.336;12.340;2024-03-23T16:46:00;7.40;99.90
2062;DHT22;11070;51.336;12.340;2024-03-23T16:48:28;7.30;99.90
2062;DHT22;11070;51.336;12.340;2024-03-23T16:50:56;7.20;99.90
2062;DHT22;11070;51.336;12.340;2024-03-23T16:53:25;7.10;99.90
2062;DHT22;11070;51.336;12.340;2024-03-23T16:55:58;7.00;99.90